Prospect Heights, IL (60070)

5:46 PM CDT on May 23, 2018 (GMT -0500)
Hickory Meadows | | Change Station
Active Advisory: Flood Warning, Flood Advisory Active Notice: Flood Advisory

Elev 702 ft 42.10 °N, 87.97 °W | Updated 24 seconds ago

Clear
Clear
77.0 °F
Feels Like 78 °F
N
2.0
Wind Variable Wind from SE
Gusts 4.0 mph

Today
High -- | Low -- °F
--% Chance of Precip.
Yesterday
High -- | Low -- °F
Precip. -- in
Pressure 30.19 in
Visibility 10.0 miles
Clouds Clear
Heat Index 78 °F
Dew Point 52 °F
Humidity 41%
Rainfall 0.00 in
Snow Depth Not available.
5:23 AM 8:13 PM
Waxing Gibbous, 69% visible
METAR KPWK 231952Z 09008KT 10SM CLR 24/14 A3020 RMK AO2 SLP224 T02440139
Pressure 30.19 in
Visibility 10.0 miles
Clouds Clear
Heat Index 78 °F
Dew Point 52 °F
Humidity 41%
Rainfall 0.00 in
Snow Depth Not available.
5:23 AM 8:13 PM
Waxing Gibbous, 69% visible
METAR KPWK 231952Z 09008KT 10SM CLR 24/14 A3020 RMK AO2 SLP224 T02440139

Get Your Daily Forecast Email!

Thanks for signing up!

Be on the lookout for a verification email in your inbox.

You'll start receiving severe weather alerts in your inbox..

×

10-Day Weather Forecast

Almanac

Astronomy

May. 23, 2018 Rise Set
Actual Time
Civil Twilight
Nautical Twilight
Astronomical Twilight
Moon
Length of Visible Light
Length of Day
Tomorrow will be .
, % of the Moon is Illuminated

Today's Extremes

State Highs State Lows

Community

WunderPhotos

Category 6

Welcome to Category 6. This is the collective home for Weather Underground's featured writeups by Dr. Jeff Masters (right), Bob Henson (left), Chris Burt, and other regular contributors.

Nearby

Air Quality

  Air Quality AQ Index Pollutant
Not available.

Snow Depth

Station Depth Elevation

Earthquake Activity

City Distance Mag. Time & Date
Minimum magnitude displayed is 2.5.

Coastal Water Temperatures

Place Temperature

Stations

Nearby Weather Stations

Station Location Temp. Windchill Dew Point Humidity Wind Precip. Elev Updated Type
                   

Watches & Warnings

Flood Warning
Issued: 10:17 AM CDT May. 23, 2018 – National Weather Service

The Flood Warning continues for
the Des Plaines river near Des Plaines.
* Until Thursday afternoon.
* At 845 am Wednesday the stage was 16.0 feet.
* Flood stage is 15.0 feet.
* Minor flooding is occurring and minor flooding is forecast.
* Forecast... the river will continue to fall to below flood stage by
Thursday morning.
* Impact... at 15.5 feet... water reaches some backyards along Big Bend
drive.


Lat... Lon 4212 8784 4196 8780 4196 8790 4212 8794





Flood Advisory
Issued: 10:22 AM CDT May. 23, 2018 – National Weather Service

The flood advisory continues for
the Des Plaines river at River Forest
* until late tonight.
* At 1000 am Wednesday the stage was 13.4 feet.
* Action stage is 13.0 feet.
* Flood stage is 16.0 feet.
* Forecast... the river will continue to fall.


Lat... Lon 4196 8790 4197 8780 4187 8777 4186 8787



Rc